createdAt,value
2019-02-21T00:00:07.958Z,7.33
2019-02-21T01:10:59.183Z,6.89
2019-02-21T01:11:56.406Z,6.89
2019-02-21T01:12:56.394Z,6.89
2019-02-21T01:13:56.402Z,6.81
2019-02-21T01:14:56.381Z,6.89
2019-02-21T01:15:56.358Z,6.81
2019-02-21T01:16:56.351Z,6.88
2019-02-21T01:17:56.340Z,6.88
2019-02-21T01:18:56.326Z,6.72
2019-02-21T01:19:56.326Z,6.69
2019-02-21T01:20:56.308Z,6.78
2019-02-21T01:21:56.310Z,6.75
2019-02-21T01:22:56.289Z,6.75
2019-02-21T01:23:56.271Z,6.78
2019-02-21T01:24:56.263Z,6.74
2019-02-21T01:25:56.252Z,6.77
2019-02-21T01:26:56.234Z,6.70
2019-02-21T01:27:56.237Z,6.77
2019-02-21T01:28:56.218Z,6.75
2019-02-21T01:29:56.220Z,6.64
2019-02-21T01:30:57.180Z,6.56
2019-02-21T01:31:56.182Z,6.62
2019-02-21T01:32:56.173Z,6.69
2019-02-21T01:33:56.166Z,6.67
2019-02-21T01:34:56.146Z,6.62
2019-02-21T01:35:56.158Z,6.62
2019-02-21T01:36:56.123Z,6.66
2019-02-21T01:37:56.114Z,6.67
2019-02-21T01:38:56.101Z,6.64
2019-02-21T01:39:56.094Z,6.62
2019-02-21T01:40:56.082Z,6.60
2019-02-21T01:41:56.086Z,6.51
2019-02-21T01:42:56.069Z,6.57
2019-02-21T01:43:56.050Z,6.54
2019-02-21T01:44:56.044Z,6.46
2019-02-21T01:45:56.023Z,6.54
2019-02-21T01:46:56.014Z,6.52
2019-02-21T01:47:56.022Z,6.49
2019-02-21T01:48:55.991Z,6.44
2019-02-21T01:49:55.982Z,6.38
2019-02-21T01:50:55.970Z,6.39
2019-02-21T01:51:55.958Z,6.36
2019-02-21T01:52:55.946Z,6.45
2019-02-21T01:53:55.953Z,6.46
2019-02-21T01:54:55.926Z,6.45
2019-02-21T01:55:55.932Z,6.46
2019-02-21T01:56:55.901Z,6.52
2019-02-21T01:57:55.890Z,6.42
2019-02-21T01:58:55.878Z,6.54
2019-02-21T01:59:55.871Z,6.46
2019-02-21T02:00:55.860Z,6.48
2019-02-21T02:01:55.867Z,6.51
2019-02-21T02:02:55.837Z,6.51
2019-02-21T02:03:55.842Z,6.42
2019-02-21T02:04:55.813Z,6.59
2019-02-21T02:05:55.802Z,6.46
2019-02-21T02:06:55.805Z,6.48
2019-02-21T02:07:55.781Z,6.48
2019-02-21T02:08:55.768Z,6.57
2019-02-21T02:09:55.766Z,6.59
2019-02-21T02:10:55.746Z,6.60
2019-02-21T02:11:55.734Z,6.60
2019-02-21T02:12:55.725Z,6.46
2019-02-21T02:13:55.718Z,6.51
2019-02-21T02:14:55.718Z,6.52
2019-02-21T02:15:55.691Z,6.52
2019-02-21T02:16:55.684Z,6.51
2019-02-21T02:17:55.670Z,6.44
2019-02-21T02:18:55.658Z,6.52
2019-02-21T02:19:55.650Z,6.46
2019-02-21T02:20:55.644Z,6.44
2019-02-21T02:21:55.626Z,6.45
2019-02-21T02:22:55.617Z,6.46
2019-02-21T02:23:55.604Z,6.36
2019-02-21T02:24:55.593Z,6.35
2019-02-21T02:25:55.594Z,6.45
2019-02-21T02:26:55.589Z,6.42
2019-02-21T02:27:55.554Z,6.41
2019-02-21T02:28:55.542Z,6.38
2019-02-21T02:29:55.538Z,6.30
2019-02-21T02:30:55.525Z,6.36
2019-02-21T02:31:55.522Z,6.36
2019-02-21T02:32:55.527Z,6.28
2019-02-21T02:33:55.489Z,6.26
2019-02-21T02:34:55.482Z,6.26
2019-02-21T02:35:55.477Z,6.19
2019-02-21T02:36:55.458Z,6.19
2019-02-21T02:37:55.445Z,6.20
2019-02-21T02:38:55.460Z,6.19
2019-02-21T02:39:55.426Z,6.12
2019-02-21T02:40:55.416Z,6.20
2019-02-21T02:41:55.406Z,6.14
2019-02-21T02:42:55.400Z,6.17
2019-02-21T02:43:55.377Z,6.12
2019-02-21T02:44:55.377Z,6.17
2019-02-21T02:45:55.357Z,6.11
2019-02-21T02:46:55.344Z,6.05
2019-02-21T02:47:55.337Z,6.12
2019-02-21T02:48:55.342Z,6.09
2019-02-21T02:49:55.313Z,6.11
2019-02-21T02:50:55.317Z,6.09
2019-02-21T02:51:55.307Z,6.04
2019-02-21T02:52:55.289Z,6.09
2019-02-21T02:53:55.269Z,6.07
2019-02-21T02:54:55.256Z,6.07
2019-02-21T02:55:55.252Z,6.12
2019-02-21T02:56:55.238Z,6.14
2019-02-21T02:57:55.243Z,6.22
2019-02-21T02:58:55.211Z,6.19
2019-02-21T02:59:55.211Z,6.09
2019-02-21T03:00:55.193Z,6.09
2019-02-21T03:01:55.209Z,6.14
2019-02-21T03:02:55.173Z,6.14
2019-02-21T03:03:55.182Z,6.09
2019-02-21T03:04:55.150Z,6.07
2019-02-21T03:05:55.133Z,6.11
2019-02-21T03:06:55.134Z,6.17
2019-02-21T03:07:55.118Z,6.16
2019-02-21T03:08:55.101Z,6.14
2019-02-21T03:09:55.102Z,6.08
2019-02-21T03:10:55.078Z,6.17
2019-02-21T03:11:55.074Z,6.14
2019-02-21T03:12:55.059Z,6.26
2019-02-21T03:13:55.071Z,6.12
2019-02-21T03:14:55.045Z,6.22
2019-02-21T03:15:55.021Z,6.22
2019-02-21T03:16:55.011Z,6.24
2019-02-21T03:17:55.021Z,6.24
2019-02-21T03:18:54.993Z,6.20
2019-02-21T03:19:54.994Z,6.20
2019-02-21T03:20:54.971Z,6.27
2019-02-21T03:21:54.957Z,6.27
2019-02-21T03:22:54.948Z,6.31
2019-02-21T03:23:54.975Z,6.30
2019-02-21T03:24:54.944Z,6.27
2019-02-21T03:25:54.917Z,6.31
2019-02-21T03:26:54.907Z,6.33
2019-02-21T03:27:54.888Z,6.24
2019-02-21T03:28:54.883Z,6.28
2019-02-21T03:29:54.869Z,6.27
2019-02-21T03:30:54.891Z,6.28
2019-02-21T03:31:56.163Z,6.31
2019-02-21T03:32:54.834Z,6.30
2019-02-21T03:33:54.833Z,6.28
2019-02-21T03:34:54.815Z,6.31
2019-02-21T03:35:54.839Z,6.38
2019-02-21T03:36:54.806Z,6.30
2019-02-21T03:37:54.813Z,6.42
2019-02-21T03:38:54.776Z,6.31
2019-02-21T03:39:54.805Z,6.33
2019-02-21T03:40:54.747Z,6.35
2019-02-21T03:41:54.750Z,6.39
2019-02-21T03:42:54.758Z,6.31
2019-02-21T03:43:54.716Z,6.31
2019-02-21T03:44:54.697Z,6.33
2019-02-21T03:45:54.685Z,6.26
2019-02-21T03:46:54.678Z,6.30
2019-02-21T03:47:54.673Z,6.27
2019-02-21T03:48:54.681Z,6.31
2019-02-21T03:49:54.645Z,6.22
2019-02-21T03:50:54.633Z,6.28
2019-02-21T03:51:54.624Z,6.19
2019-02-21T03:52:54.612Z,6.17
2019-02-21T03:53:54.601Z,6.26
2019-02-21T03:54:54.597Z,6.22
2019-02-21T03:55:54.590Z,6.30
2019-02-21T03:56:54.574Z,6.22
2019-02-21T03:57:54.556Z,6.24
2019-02-21T03:58:54.544Z,6.14
2019-02-21T03:59:54.557Z,6.24
2019-02-21T04:00:54.526Z,6.26
2019-02-21T04:02:04.748Z,6.24
2019-02-21T04:02:55.501Z,6.14
2019-02-21T04:03:54.488Z,6.14
2019-02-21T04:04:54.488Z,6.20
2019-02-21T04:05:54.483Z,6.09
2019-02-21T04:06:54.456Z,6.07
2019-02-21T04:07:54.441Z,6.11
2019-02-21T04:08:54.434Z,6.04
2019-02-21T04:09:54.420Z,6.14
2019-02-21T04:10:54.425Z,6.14
2019-02-21T04:11:54.401Z,6.09
2019-02-21T04:12:54.407Z,6.04
2019-02-21T04:13:54.377Z,6.09
2019-02-21T04:14:54.366Z,6.07
2019-02-21T04:15:54.361Z,6.11
2019-02-21T04:16:54.346Z,6.12
2019-02-21T04:17:54.332Z,6.09
2019-02-21T04:18:54.341Z,6.14
2019-02-21T04:19:54.312Z,6.09
2019-02-21T04:20:54.301Z,6.02
2019-02-21T04:21:54.292Z,6.07
2019-02-21T04:22:54.282Z,6.04
2019-02-21T04:23:54.267Z,6.07
2019-02-21T04:24:54.283Z,6.08
2019-02-21T04:25:54.245Z,6.12
2019-02-21T04:26:54.234Z,6.08
2019-02-21T04:27:54.225Z,6.05
2019-02-21T04:28:54.214Z,6.05
2019-02-21T04:29:54.201Z,6.01
2019-02-21T04:30:54.205Z,6.01
2019-02-21T04:31:54.180Z,6.08
2019-02-21T04:32:54.166Z,6.02
2019-02-21T04:33:54.167Z,5.97
2019-02-21T04:34:54.146Z,5.98
2019-02-21T04:35:54.144Z,5.98
2019-02-21T04:36:54.145Z,5.91
2019-02-21T04:37:54.114Z,5.91
2019-02-21T04:38:54.115Z,5.91
2019-02-21T04:39:54.089Z,5.87
2019-02-21T04:40:54.077Z,5.91
2019-02-21T04:41:54.148Z,5.84
2019-02-21T04:42:54.064Z,5.83
2019-02-21T04:43:54.046Z,5.82
2019-02-21T04:44:54.034Z,5.84
2019-02-21T04:45:54.024Z,5.72
2019-02-21T04:46:54.012Z,5.83
2019-02-21T04:47:54.043Z,5.79
2019-02-21T04:48:53.998Z,5.86
2019-02-21T04:49:53.976Z,5.82
2019-02-21T04:50:54.528Z,5.69
2019-02-21T04:51:53.956Z,5.79
2019-02-21T04:52:53.943Z,5.73
2019-02-21T04:53:53.952Z,5.68
2019-02-21T04:54:53.933Z,5.73
2019-02-21T04:55:53.914Z,5.64
2019-02-21T04:56:53.900Z,5.75
2019-02-21T04:57:53.888Z,5.71
2019-02-21T04:58:53.880Z,5.59
2019-02-21T04:59:53.890Z,5.56
2019-02-21T05:00:53.857Z,5.59
2019-02-21T05:01:53.849Z,5.69
2019-02-21T05:02:53.832Z,5.62
2019-02-21T05:03:53.824Z,5.65
2019-02-21T05:04:53.836Z,5.65
2019-02-21T05:05:53.805Z,5.56
2019-02-21T05:06:53.792Z,5.59
2019-02-21T05:07:53.780Z,5.61
2019-02-21T05:08:53.766Z,5.54
2019-02-21T05:09:57.881Z,5.69
2019-02-21T05:10:53.768Z,5.66
2019-02-21T05:11:53.739Z,5.57
2019-02-21T05:12:53.725Z,5.62
2019-02-21T05:13:53.712Z,5.50
2019-02-21T05:14:53.700Z,5.46
2019-02-21T05:15:53.700Z,5.56
2019-02-21T05:16:53.696Z,5.48
2019-02-21T05:17:53.668Z,5.51
2019-02-21T05:18:53.659Z,5.48
2019-02-21T05:19:53.654Z,5.43
2019-02-21T05:20:53.637Z,5.48
2019-02-21T05:21:53.627Z,5.54
2019-02-21T05:22:53.640Z,5.48
2019-02-21T05:23:53.606Z,5.65
2019-02-21T05:24:53.593Z,5.54
2019-02-21T05:25:53.579Z,5.53
2019-02-21T05:26:53.567Z,5.51
2019-02-21T05:27:53.551Z,5.56
2019-02-21T05:28:53.563Z,5.46
2019-02-21T05:29:53.531Z,5.54
2019-02-21T05:30:53.574Z,5.53
2019-02-21T05:31:53.508Z,5.54
2019-02-21T05:32:53.503Z,5.56
2019-02-21T05:33:53.536Z,5.44
2019-02-21T05:34:53.478Z,5.44
2019-02-21T05:35:53.470Z,5.57
2019-02-21T05:36:53.458Z,5.51
2019-02-21T05:37:53.447Z,5.47
2019-02-21T05:38:53.435Z,5.47
2019-02-21T05:39:53.438Z,5.46
2019-02-21T05:40:53.411Z,5.48
2019-02-21T05:41:53.402Z,5.51
2019-02-21T05:42:53.391Z,5.51
2019-02-21T05:43:53.383Z,5.51
2019-02-21T05:44:53.391Z,5.61
2019-02-21T05:45:53.358Z,5.56
2019-02-21T05:46:53.399Z,5.46
2019-02-21T05:47:53.344Z,5.56
2019-02-21T05:48:53.318Z,5.54
2019-02-21T05:49:53.315Z,5.57
2019-02-21T05:50:53.325Z,5.53
2019-02-21T05:51:53.290Z,5.50
2019-02-21T05:52:53.286Z,5.62
2019-02-21T05:53:53.274Z,5.41
2019-02-21T05:54:53.254Z,5.50
2019-02-21T05:55:53.270Z,5.51
2019-02-21T05:56:53.256Z,5.41
2019-02-21T05:57:53.225Z,5.51
2019-02-21T05:58:53.209Z,5.39
2019-02-21T05:59:53.208Z,5.43
2019-02-21T06:00:53.239Z,5.46
2019-02-21T06:01:53.198Z,5.50
2019-02-21T06:02:53.822Z,5.46
2019-02-21T06:03:53.163Z,5.48
2019-02-21T06:04:53.146Z,5.47
2019-02-21T06:05:53.134Z,5.38
2019-02-21T06:06:53.131Z,5.43
2019-02-21T06:07:53.127Z,5.35
2019-02-21T06:08:53.098Z,5.41
2019-02-21T06:09:53.099Z,5.35
2019-02-21T06:10:53.074Z,5.46
2019-02-21T06:11:53.070Z,5.38
2019-02-21T06:12:53.098Z,5.43
2019-02-21T06:13:53.042Z,5.36
2019-02-21T06:14:53.034Z,5.30
2019-02-21T06:15:53.021Z,5.35
2019-02-21T06:16:53.011Z,5.30
2019-02-21T06:17:52.999Z,5.35
2019-02-21T06:18:53.001Z,5.32
2019-02-21T06:19:52.977Z,5.38
2019-02-21T06:20:52.966Z,5.33
2019-02-21T06:21:52.963Z,5.33
2019-02-21T06:22:52.952Z,5.38
2019-02-21T06:23:52.954Z,5.36
2019-02-21T06:24:52.938Z,5.30
2019-02-21T06:25:56.752Z,5.25
2019-02-21T06:26:53.903Z,5.32
2019-02-21T06:27:52.894Z,5.33
2019-02-21T06:28:53.701Z,5.35
2019-02-21T06:29:52.878Z,5.36
2019-02-21T06:30:52.858Z,5.33
2019-02-21T06:31:52.849Z,5.43
2019-02-21T06:33:04.119Z,5.30
2019-02-21T06:33:53.831Z,5.32
2019-02-21T06:34:52.830Z,5.35
2019-02-21T06:35:52.802Z,5.32
2019-02-21T06:36:52.795Z,5.30
2019-02-21T06:37:52.785Z,5.35
2019-02-21T06:38:52.770Z,5.35
2019-02-21T06:39:52.758Z,5.44
2019-02-21T06:40:52.760Z,5.46
2019-02-21T06:41:59.614Z,5.41
2019-02-21T06:42:53.745Z,5.46
2019-02-21T06:43:52.991Z,5.38
2019-02-21T06:44:52.707Z,5.35
2019-02-21T06:45:52.693Z,5.41
2019-02-21T06:46:52.685Z,5.43
2019-02-21T06:47:52.699Z,5.46
2019-02-21T06:48:52.655Z,5.35
2019-02-21T06:49:52.649Z,5.33
2019-02-21T06:50:52.645Z,5.44
2019-02-21T06:51:52.625Z,5.46
2019-02-21T06:52:52.613Z,5.36
2019-02-21T06:53:53.278Z,5.41
2019-02-21T06:54:52.594Z,5.43
2019-02-21T06:55:52.581Z,5.41
2019-02-21T06:56:52.569Z,5.41
2019-02-21T06:57:52.574Z,5.48
2019-02-21T06:58:52.577Z,5.41
2019-02-21T06:59:52.534Z,5.47
2019-02-21T07:00:52.526Z,5.38
2019-02-21T07:01:52.513Z,5.43
2019-02-21T07:02:54.394Z,5.47
2019-02-21T07:03:52.494Z,5.53
2019-02-21T07:04:52.505Z,5.44
2019-02-21T07:05:52.485Z,5.46
2019-02-21T07:06:52.465Z,5.46
2019-02-21T07:07:52.447Z,5.46
2019-02-21T07:08:54.156Z,5.50
2019-02-21T07:09:52.426Z,5.51
2019-02-21T07:10:52.418Z,5.50
2019-02-21T07:11:52.421Z,5.57
2019-02-21T07:12:52.391Z,5.51
2019-02-21T07:13:52.383Z,5.62
2019-02-21T07:14:52.369Z,5.64
2019-02-21T07:15:52.355Z,5.65
2019-02-21T07:16:52.345Z,5.73
2019-02-21T07:17:52.356Z,5.69
2019-02-21T07:18:52.342Z,5.73
2019-02-21T07:19:52.315Z,5.69
2019-02-21T07:20:52.312Z,5.71
2019-02-21T07:21:52.289Z,5.80
2019-02-21T07:22:52.283Z,5.82
2019-02-21T07:23:52.292Z,5.79
2019-02-21T07:24:54.094Z,5.80
2019-02-21T07:25:52.249Z,5.75
2019-02-21T07:26:52.237Z,5.97
2019-02-21T07:27:52.221Z,5.91
2019-02-21T07:28:52.213Z,6.02
2019-02-21T07:29:52.232Z,5.99
2019-02-21T07:30:52.191Z,6.02
2019-02-21T07:31:52.183Z,5.98
2019-02-21T07:32:52.209Z,6.11
2019-02-21T07:33:52.158Z,6.01
2019-02-21T07:34:52.199Z,6.09
2019-02-21T07:35:52.135Z,6.09
2019-02-21T07:36:52.125Z,6.11
2019-02-21T07:37:52.113Z,6.07
2019-02-21T07:38:52.101Z,6.26
2019-02-21T07:39:52.108Z,6.08
2019-02-21T07:40:52.112Z,6.20
2019-02-21T07:41:52.069Z,6.26
2019-02-21T07:42:52.057Z,6.16
2019-02-21T07:43:52.064Z,6.20
2019-02-21T07:44:52.238Z,6.22
2019-02-21T07:45:52.021Z,6.24
2019-02-21T07:46:53.451Z,6.30
2019-02-21T07:47:52.001Z,6.20
2019-02-21T07:48:51.994Z,6.20
2019-02-21T07:49:51.977Z,6.28
2019-02-21T07:50:51.969Z,6.22
2019-02-21T07:51:51.957Z,6.26
2019-02-21T07:53:01.962Z,6.26
2019-02-21T07:53:52.933Z,6.30
2019-02-21T07:55:01.359Z,6.31
2019-02-21T07:55:55.668Z,6.30
2019-02-21T07:56:51.902Z,6.42
2019-02-21T07:57:51.888Z,6.38
2019-02-21T07:58:51.881Z,6.38
2019-02-21T07:59:51.885Z,6.46
2019-02-21T08:00:54.025Z,6.41
2019-02-21T08:01:51.841Z,6.51
2019-02-21T08:02:51.838Z,6.52
2019-02-21T08:03:51.825Z,6.46
2019-02-21T08:04:51.809Z,6.49
2019-02-21T08:05:51.813Z,6.51
2019-02-21T08:06:51.791Z,6.51
2019-02-21T08:07:51.781Z,6.45
2019-02-21T08:08:51.785Z,6.60
2019-02-21T08:09:51.793Z,6.54
2019-02-21T08:10:51.750Z,6.66
2019-02-21T08:11:51.733Z,6.63
2019-02-21T08:12:53.598Z,6.69
2019-02-21T08:13:51.713Z,6.69
2019-02-21T08:14:51.701Z,6.74
2019-02-21T08:15:51.709Z,6.74
2019-02-21T08:16:51.685Z,6.89
2019-02-21T08:17:51.678Z,6.82
2019-02-21T08:18:51.657Z,6.88
2019-02-21T08:19:51.645Z,6.97
2019-02-21T08:20:51.657Z,6.99
2019-02-21T08:21:51.660Z,6.99
2019-02-21T08:22:51.618Z,7.02
2019-02-21T08:23:51.605Z,7.10
2019-02-21T08:24:51.602Z,7.11
2019-02-21T08:25:51.581Z,7.21
2019-02-21T08:26:51.581Z,7.24
2019-02-21T08:27:51.569Z,7.21
2019-02-21T08:28:51.548Z,7.36
2019-02-21T08:29:51.533Z,7.47
2019-02-21T08:30:51.525Z,7.43
2019-02-21T08:31:51.537Z,7.53
2019-02-21T08:32:51.501Z,7.56
2019-02-21T08:33:58.448Z,7.60
2019-02-21T08:34:52.477Z,7.63
2019-02-21T08:35:53.969Z,7.63
2019-02-21T08:36:51.456Z,7.72
2019-02-21T08:37:51.466Z,7.82
2019-02-21T08:38:51.433Z,7.85
2019-02-21T08:39:51.430Z,7.82
2019-02-21T08:40:53.287Z,7.87
2019-02-21T08:41:51.398Z,7.87
2019-02-21T08:42:51.389Z,7.88
2019-02-21T08:43:51.389Z,7.90
2019-02-21T08:44:51.366Z,7.91
2019-02-21T08:45:51.356Z,7.90
2019-02-21T08:46:53.442Z,7.91
2019-02-21T08:47:51.332Z,7.83
2019-02-21T08:48:51.345Z,7.87
2019-02-21T08:49:51.312Z,7.93
2019-02-21T08:50:51.302Z,7.94
2019-02-21T08:51:51.285Z,7.98
2019-02-21T08:52:51.279Z,7.93
2019-02-21T08:53:51.270Z,7.94
2019-02-21T08:54:59.924Z,7.98
2019-02-21T08:55:52.246Z,7.88
2019-02-21T08:56:51.231Z,8.01
2019-02-21T08:57:51.224Z,7.95
2019-02-21T08:58:51.212Z,7.95
2019-02-21T08:59:51.199Z,7.94
2019-02-21T09:00:51.207Z,8.03
2019-02-21T09:01:51.185Z,8.03
2019-02-21T09:02:51.167Z,8.03
2019-02-21T09:03:51.153Z,8.05
2019-02-21T09:04:51.142Z,8.10
2019-02-21T09:05:51.161Z,8.13
2019-02-21T09:06:51.121Z,8.13
2019-02-21T09:07:51.108Z,8.08
2019-02-21T09:08:51.098Z,8.12
2019-02-21T09:09:51.085Z,8.09
2019-02-21T09:10:51.076Z,8.08
2019-02-21T09:11:53.662Z,8.15
2019-02-21T09:12:51.057Z,8.18
2019-02-21T09:13:51.045Z,8.27
2019-02-21T09:14:51.033Z,8.33
2019-02-21T09:15:51.028Z,8.31
2019-02-21T09:16:51.005Z,8.41
2019-02-21T09:17:51.014Z,8.36
2019-02-21T09:18:50.985Z,8.41
2019-02-21T09:19:50.974Z,8.49
2019-02-21T09:20:50.965Z,8.42
2019-02-21T09:21:53.444Z,8.51
2019-02-21T09:22:50.945Z,8.61
2019-02-21T09:23:50.945Z,8.63
2019-02-21T09:24:50.921Z,8.61
2019-02-21T09:25:50.909Z,8.69
2019-02-21T09:26:50.901Z,8.69
2019-02-21T09:27:50.888Z,8.58
2019-02-21T09:28:50.897Z,8.55
2019-02-21T09:29:50.861Z,8.58
2019-02-21T09:30:50.850Z,8.58
2019-02-21T09:31:50.841Z,8.60
2019-02-21T09:32:50.836Z,8.63
2019-02-21T09:33:50.820Z,8.60
2019-02-21T09:34:50.826Z,8.66
2019-02-21T09:35:50.794Z,8.61
2019-02-21T09:36:50.785Z,8.74
2019-02-21T09:37:50.777Z,8.69
2019-02-21T09:38:50.777Z,8.58
2019-02-21T09:39:50.757Z,8.60
2019-02-21T09:40:50.757Z,8.63
2019-02-21T09:41:50.730Z,8.63
2019-02-21T09:42:50.718Z,8.61
2019-02-21T09:43:51.217Z,8.71
2019-02-21T09:44:50.697Z,8.60
2019-02-21T09:45:50.682Z,8.58
2019-02-21T09:46:50.686Z,8.66
2019-02-21T09:47:50.661Z,8.63
2019-02-21T09:48:50.657Z,8.55
2019-02-21T09:49:50.650Z,8.58
2019-02-21T09:50:50.639Z,8.58
2019-02-21T09:51:50.637Z,8.70
2019-02-21T09:52:50.610Z,8.67
2019-02-21T09:53:50.598Z,8.63
2019-02-21T09:54:50.583Z,8.58
2019-02-21T09:55:50.672Z,8.61
2019-02-21T09:56:53.083Z,8.63
2019-02-21T09:57:50.569Z,8.64
2019-02-21T09:58:50.538Z,8.61
2019-02-21T09:59:50.526Z,8.70
2019-02-21T10:00:50.522Z,8.69
2019-02-21T10:01:50.507Z,8.81
2019-02-21T10:02:53.450Z,8.85
2019-02-21T10:03:51.565Z,8.79
2019-02-21T10:04:50.471Z,8.88
2019-02-21T10:05:50.470Z,8.85
2019-02-21T10:06:50.450Z,8.81
2019-02-21T10:07:50.446Z,8.89
2019-02-21T10:08:50.434Z,8.95
2019-02-21T10:09:50.436Z,8.95
2019-02-21T10:10:50.406Z,8.89
2019-02-21T10:11:50.393Z,8.94
2019-02-21T10:12:50.386Z,8.99
2019-02-21T10:13:50.373Z,8.91
2019-02-21T10:14:50.366Z,8.88
2019-02-21T10:15:50.368Z,8.97
2019-02-21T10:16:50.356Z,8.94
2019-02-21T10:17:50.953Z,9.08
2019-02-21T10:18:50.318Z,9.04
2019-02-21T10:19:50.313Z,9.11
2019-02-21T10:20:50.293Z,9.13
2019-02-21T10:21:50.285Z,9.19
2019-02-21T10:22:50.271Z,9.18
2019-02-21T10:23:50.274Z,9.26
2019-02-21T10:24:50.445Z,9.39
2019-02-21T10:25:50.242Z,9.36
2019-02-21T10:26:50.231Z,9.40
2019-02-21T10:27:50.217Z,9.50
2019-02-21T10:28:50.207Z,9.48
2019-02-21T10:29:50.219Z,9.51
2019-02-21T10:30:50.185Z,9.50
2019-02-21T10:31:50.170Z,9.58
2019-02-21T10:32:50.168Z,9.69
2019-02-21T10:33:50.154Z,9.76
2019-02-21T10:34:50.142Z,9.74
2019-02-21T10:35:50.147Z,9.82
2019-02-21T10:36:50.118Z,9.79
2019-02-21T10:37:50.110Z,9.79
2019-02-21T10:38:50.094Z,9.77
2019-02-21T10:39:50.093Z,9.84
2019-02-21T10:40:50.070Z,9.80
2019-02-21T10:41:50.091Z,9.83
2019-02-21T10:42:50.095Z,9.92
2019-02-21T10:43:50.042Z,9.84
2019-02-21T10:44:50.027Z,9.95
2019-02-21T10:45:50.022Z,9.87
2019-02-21T10:46:50.006Z,9.92
2019-02-21T10:47:50.006Z,9.91
2019-02-21T10:48:49.989Z,10.02
2019-02-21T10:49:49.988Z,10.02
2019-02-21T10:50:49.963Z,9.98
2019-02-21T10:51:49.950Z,9.99
2019-02-21T10:52:49.938Z,9.97
2019-02-21T10:53:49.946Z,9.92
2019-02-21T10:54:49.918Z,9.92
2019-02-21T10:55:49.910Z,9.94
2019-02-21T10:56:49.917Z,9.87
2019-02-21T10:57:49.898Z,10.02
2019-02-21T10:58:49.873Z,10.05
2019-02-21T10:59:49.869Z,10.07
2019-02-21T11:00:49.850Z,9.94
2019-02-21T11:01:49.845Z,9.87
2019-02-21T11:02:49.828Z,10.01
2019-02-21T11:03:49.817Z,10.01
2019-02-21T11:04:54.810Z,10.05
2019-02-21T11:05:50.796Z,10.07
2019-02-21T11:06:49.787Z,10.04
2019-02-21T11:07:49.782Z,10.04
2019-02-21T11:08:49.764Z,10.05
2019-02-21T11:09:49.750Z,10.17
2019-02-21T11:10:49.750Z,10.16
2019-02-21T11:11:49.726Z,10.20
2019-02-21T11:12:49.716Z,10.25
2019-02-21T11:13:49.704Z,10.33
2019-02-21T11:14:49.693Z,10.33
2019-02-21T11:15:49.682Z,10.34
2019-02-21T11:16:49.685Z,10.40
2019-02-21T11:17:49.661Z,10.42
2019-02-21T11:18:49.649Z,10.34
2019-02-21T11:19:49.637Z,10.31
2019-02-21T11:20:49.622Z,10.35
2019-02-21T11:21:49.634Z,10.46
2019-02-21T11:22:49.606Z,10.54
2019-02-21T11:23:49.594Z,10.60
2019-02-21T11:24:49.580Z,10.64
2019-02-21T11:25:49.570Z,10.64
2019-02-21T11:26:49.557Z,10.75
2019-02-21T11:27:49.562Z,10.79
2019-02-21T11:28:49.538Z,10.71
2019-02-21T11:29:49.528Z,10.72
2019-02-21T11:30:49.513Z,10.75
2019-02-21T11:31:49.514Z,10.82
2019-02-21T11:32:49.515Z,10.75
2019-02-21T11:33:49.505Z,10.79
2019-02-21T11:34:49.466Z,10.78
2019-02-21T11:35:49.462Z,10.81
2019-02-21T11:36:49.445Z,10.76
2019-02-21T11:37:49.438Z,10.87
2019-02-21T11:38:49.421Z,10.89
2019-02-21T11:39:49.425Z,10.86
2019-02-21T11:40:49.402Z,10.84
2019-02-21T11:41:49.386Z,11.00
2019-02-21T11:42:49.381Z,10.92
2019-02-21T11:43:49.366Z,11.00
2019-02-21T11:44:49.353Z,11.02
2019-02-21T11:45:53.817Z,11.14
2019-02-21T11:46:50.330Z,11.14
2019-02-21T11:47:49.321Z,11.23
2019-02-21T11:48:49.318Z,11.33
2019-02-21T11:49:49.301Z,11.36
2019-02-21T11:50:49.289Z,11.54
2019-02-21T11:51:49.289Z,11.60
2019-02-21T11:52:49.269Z,11.54
2019-02-21T11:53:49.254Z,11.59
2019-02-21T11:54:49.242Z,11.59
2019-02-21T11:55:49.235Z,11.68
2019-02-21T11:56:49.234Z,11.62
2019-02-21T11:57:49.209Z,11.75
2019-02-21T11:58:49.194Z,11.86
2019-02-21T11:59:49.182Z,12.09
2019-02-21T12:00:49.182Z,12.17
2019-02-21T12:01:49.162Z,12.06
2019-02-21T12:02:49.152Z,12.06
2019-02-21T12:03:49.141Z,11.94
2019-02-21T12:04:49.132Z,11.78
2019-02-21T12:05:49.148Z,11.78
2019-02-21T12:06:49.110Z,11.63
2019-02-21T12:07:49.094Z,11.69
2019-02-21T12:08:49.086Z,11.55
2019-02-21T12:09:49.072Z,11.50
2019-02-21T12:10:51.039Z,11.44
2019-02-21T12:11:49.071Z,11.44
2019-02-21T12:12:49.043Z,11.33
2019-02-21T12:13:49.026Z,11.29
2019-02-21T12:14:49.018Z,11.27
2019-02-21T12:15:49.014Z,11.22
2019-02-21T12:16:48.994Z,11.05
2019-02-21T12:17:49.010Z,11.08
2019-02-21T12:18:48.974Z,11.00
2019-02-21T12:19:48.964Z,10.87
2019-02-21T12:20:48.950Z,10.78
2019-02-21T12:21:58.642Z,10.72
2019-02-21T12:22:49.976Z,10.61
2019-02-21T12:23:48.918Z,10.56
2019-02-21T12:24:48.906Z,10.48
2019-02-21T12:25:48.893Z,10.42
2019-02-21T12:26:48.881Z,10.44
2019-02-21T12:27:48.874Z,10.33
2019-02-21T12:28:48.882Z,10.33
2019-02-21T12:29:48.849Z,10.34
2019-02-21T12:30:48.838Z,10.38
2019-02-21T12:31:48.825Z,10.35
2019-02-21T12:32:48.813Z,10.42
2019-02-21T12:33:48.802Z,10.54
2019-02-21T12:34:48.805Z,10.53
2019-02-21T12:35:48.777Z,10.51
2019-02-21T12:36:48.781Z,10.57
2019-02-21T12:37:48.932Z,10.60
2019-02-21T12:38:48.749Z,10.69
2019-02-21T12:39:48.737Z,10.71
2019-02-21T12:40:48.751Z,10.87
2019-02-21T12:41:48.711Z,10.87
2019-02-21T12:42:48.713Z,10.87
2019-02-21T12:43:48.690Z,10.92
2019-02-21T12:44:48.677Z,10.97
2019-02-21T12:45:48.685Z,10.94
2019-02-21T12:46:48.664Z,11.12
2019-02-21T12:47:52.876Z,11.23
2019-02-21T12:48:48.633Z,11.30
2019-02-21T12:49:48.622Z,11.23
2019-02-21T12:50:48.613Z,11.18
2019-02-21T12:51:48.613Z,11.00
2019-02-21T12:52:48.720Z,11.11
2019-02-21T12:53:48.666Z,11.02
2019-02-21T12:54:48.588Z,11.02
2019-02-21T12:55:48.559Z,10.94
2019-02-21T12:56:48.546Z,10.99
2019-02-21T12:57:48.549Z,10.99
2019-02-21T12:58:48.517Z,11.08
2019-02-21T12:59:48.520Z,11.04
2019-02-21T13:00:48.502Z,10.97
2019-02-21T13:01:48.484Z,10.99
2019-02-21T13:02:48.483Z,10.97
2019-02-21T13:03:48.473Z,10.97
2019-02-21T13:04:48.458Z,10.94
2019-02-21T13:05:48.444Z,10.93
2019-02-21T13:06:48.430Z,10.97
2019-02-21T13:07:48.441Z,11.00
2019-02-21T13:08:55.520Z,11.00
2019-02-21T13:09:48.399Z,11.00
2019-02-21T13:10:48.385Z,11.05
2019-02-21T13:11:48.413Z,11.08
2019-02-21T13:12:48.441Z,11.05
2019-02-21T13:13:48.370Z,10.99
2019-02-21T13:14:48.354Z,11.00
2019-02-21T13:15:48.328Z,11.11
2019-02-21T13:16:48.317Z,11.10
2019-02-21T13:17:50.867Z,11.08
2019-02-21T13:18:48.289Z,11.04
2019-02-21T13:19:48.290Z,11.00
2019-02-21T13:20:48.273Z,11.07
2019-02-21T13:21:48.262Z,11.19
2019-02-21T13:22:48.256Z,11.14
2019-02-21T13:23:48.239Z,11.12
2019-02-21T13:24:48.240Z,11.14
2019-02-21T13:25:48.221Z,11.12
2019-02-21T13:26:48.208Z,11.07
2019-02-21T13:27:48.204Z,11.05
2019-02-21T13:28:48.188Z,11.12
2019-02-21T13:29:48.168Z,11.08
2019-02-21T13:30:48.160Z,11.02
2019-02-21T13:31:48.147Z,11.05
2019-02-21T13:32:48.148Z,11.07
2019-02-21T13:33:48.146Z,11.00
2019-02-21T13:34:48.125Z,11.08
2019-02-21T13:35:52.766Z,10.96
2019-02-21T13:36:49.101Z,10.89
2019-02-21T13:37:48.089Z,10.96
2019-02-21T13:38:48.069Z,10.90
2019-02-21T13:39:48.056Z,10.90
2019-02-21T13:40:49.563Z,10.92
2019-02-21T13:41:48.153Z,10.97
2019-02-21T13:42:48.040Z,11.05
2019-02-21T13:43:48.026Z,11.02
2019-02-21T13:44:48.000Z,10.99
2019-02-21T13:45:47.988Z,11.11
2019-02-21T13:46:47.981Z,11.07
2019-02-21T13:47:47.965Z,11.12
2019-02-21T13:48:47.971Z,11.19
2019-02-21T13:49:47.942Z,11.14
2019-02-21T13:50:47.938Z,11.19
2019-02-21T13:51:47.935Z,11.19
2019-02-21T13:52:47.913Z,11.18
2019-02-21T13:53:47.900Z,11.26
2019-02-21T13:54:47.908Z,11.29
2019-02-21T13:55:50.837Z,11.25
2019-02-21T13:56:47.874Z,11.27
2019-02-21T13:57:47.852Z,11.36
2019-02-21T13:58:47.844Z,11.33
2019-02-21T13:59:47.829Z,11.43
2019-02-21T14:00:47.906Z,11.37
2019-02-21T14:01:47.844Z,11.41
2019-02-21T14:02:55.333Z,11.48
2019-02-21T14:03:47.784Z,11.45
2019-02-21T14:04:47.770Z,11.51
2019-02-21T14:05:47.758Z,11.57
2019-02-21T14:06:47.761Z,11.57
2019-02-21T14:07:47.744Z,11.52
2019-02-21T14:08:47.737Z,11.59
2019-02-21T14:09:47.729Z,11.55
2019-02-21T14:10:47.701Z,11.57
2019-02-21T14:11:47.692Z,11.52
2019-02-21T14:12:47.702Z,11.59
2019-02-21T14:13:47.673Z,11.51
2019-02-21T14:14:47.673Z,11.50
2019-02-21T14:15:47.645Z,11.57
2019-02-21T14:16:47.642Z,11.59
2019-02-21T14:17:47.633Z,11.66
2019-02-21T14:18:47.623Z,11.55
2019-02-21T14:19:47.602Z,11.69
2019-02-21T14:20:47.601Z,11.63